Time;durP1;ratioP1;P1;durP2;ratioP2;P2;SDS_P1;SDS_P2;PMS_P1;PMS_P2;Temp;Humidity;BMP_temperature;BMP_pressure;BME280_temperature;BME280_humidity;BME280_pressure;Samples;Min_cycle;Max_cycle;Signal;HPM_P1;HPM_P2
2023/06/10 07:05:56;;;;;;;3.27;2.97;;;;;;;;;;5071332;28;20475;-85
2023/06/10 07:08:23;;;;;;;3.20;3.00;;;23.70;85.20;;;;;;5072591;28;20475;-84
2023/06/10 07:10:50;;;;;;;5.87;2.87;;;23.70;86.50;;;;;;5070902;28;20465;-84
2023/06/10 07:13:17;;;;;;;3.53;3.03;;;23.70;86.50;;;;;;5071098;28;20531;-83
2023/06/10 07:15:43;;;;;;;3.83;3.20;;;23.70;86.80;;;;;;5071777;28;20485;-83
2023/06/10 07:18:10;;;;;;;3.20;2.90;;;23.60;86.60;;;;;;5071666;28;20445;-84
2023/06/10 07:20:37;;;;;;;2.97;2.77;;;23.70;86.80;;;;;;5071665;28;20441;-83
2023/06/10 07:23:05;;;;;;;3.50;3.30;;;23.70;86.80;;;;;;5071676;28;20442;-84
2023/06/10 07:25:32;;;;;;;3.20;3.00;;;23.70;86.90;;;;;;5069814;28;20433;-83
2023/06/10 07:27:59;;;;;;;2.80;2.60;;;23.70;87.00;;;;;;5068276;28;20432;-84
2023/06/10 07:30:26;;;;;;;2.93;2.70;;;23.60;86.80;;;;;;5070804;28;20509;-83
2023/06/10 07:32:53;;;;;;;3.20;2.90;;;23.70;87.00;;;;;;5072558;28;20441;-84
2023/06/10 07:35:20;;;;;;;5.53;2.90;;;23.70;86.90;;;;;;5072185;28;20537;-83
2023/06/10 07:37:46;;;;;;;2.93;2.73;;;23.70;86.90;;;;;;5072606;28;20498;-84
2023/06/10 07:40:14;;;;;;;3.40;2.90;;;23.70;87.00;;;;;;5072911;28;20436;-84
2023/06/10 07:42:41;;;;;;;3.27;3.07;;;23.70;87.00;;;;;;5075608;28;20443;-84
2023/06/10 07:45:08;;;;;;;3.57;3.27;;;23.70;86.80;;;;;;5075477;28;20446;-84
2023/06/10 07:47:35;;;;;;;3.07;2.63;;;23.70;86.90;;;;;;5075687;28;20789;-83
2023/06/10 07:50:02;;;;;;;3.50;3.20;;;23.70;87.10;;;;;;5075607;28;20440;-83
2023/06/10 07:52:29;;;;;;;4.30;2.80;;;23.70;87.10;;;;;;5075487;28;20438;-83
2023/06/10 07:54:56;;;;;;;2.90;2.70;;;23.70;87.20;;;;;;5075288;28;20443;-84
2023/06/10 07:57:24;;;;;;;3.17;2.80;;;23.70;87.10;;;;;;5075424;28;20450;-85
2023/06/10 07:59:51;;;;;;;3.33;3.13;;;23.70;87.10;;;;;;5075396;28;20444;-83
2023/06/10 08:02:18;;;;;;;3.40;3.20;;;23.70;87.10;;;;;;5075497;28;20429;-85
2023/06/10 08:04:44;;;;;;;3.00;2.80;;;23.70;86.90;;;;;;5075277;28;20459;-83
2023/06/10 08:07:11;;;;;;;3.00;2.80;;;23.70;86.80;;;;;;5075223;28;20834;-84
2023/06/10 08:09:38;;;;;;;2.93;2.73;;;23.70;87.00;;;;;;5075574;28;20812;-84
2023/06/10 08:12:07;;;;;;;2.90;2.70;;;23.70;86.70;;;;;;5075233;28;20464;-84
2023/06/10 08:14:36;;;;;;;3.10;2.90;;;23.70;86.40;;;;;;5075181;28;20440;-85
2023/06/10 08:17:05;;;;;;;3.00;2.80;;;23.70;86.70;;;;;;5075180;28;20485;-84
2023/06/10 08:19:32;;;;;;;3.30;3.00;;;23.70;86.60;;;;;;5075528;28;20506;-84
2023/06/10 08:21:59;;;;;;;3.30;3.00;;;23.70;86.80;;;;;;5075439;28;20442;-84
2023/06/10 08:24:25;;;;;;;2.63;2.43;;;23.70;86.90;;;;;;5074843;28;20440;-84
2023/06/10 08:26:52;;;;;;;3.33;2.70;;;23.70;87.00;;;;;;5074791;28;20443;-84
2023/06/10 08:29:19;;;;;;;3.47;3.17;;;23.70;86.50;;;;;;5074836;28;20843;-84
2023/06/10 08:31:47;;;;;;;3.43;3.13;;;23.70;86.50;;;;;;5074667;28;20438;-83
2023/06/10 08:34:14;;;;;;;3.27;3.07;;;23.70;86.60;;;;;;5075151;28;20440;-86
2023/06/10 08:36:41;;;;;;;3.47;3.17;;;23.70;86.40;;;;;;5074917;28;20495;-93
2023/06/10 08:39:08;;;;;;;5.53;3.10;;;23.70;86.40;;;;;;5074780;28;20441;-91
2023/06/10 08:41:39;;;;;;;2.80;2.60;;;23.70;86.50;;;;;;5074743;28;20461;-85
2023/06/10 08:44:11;;;;;;;3.40;2.70;;;23.70;86.50;;;;;;5074952;28;20508;-85
2023/06/10 08:46:39;;;;;;;2.97;2.77;;;23.70;86.50;;;;;;5074805;28;20509;-84
2023/06/10 08:49:08;;;;;;;3.03;2.80;;;23.70;86.20;;;;;;5076411;28;20491;-85
2023/06/10 08:51:37;;;;;;;3.10;2.80;;;23.90;86.60;;;;;;5074656;28;20437;-86
2023/06/10 08:54:12;;;;;;;3.37;3.17;;;23.70;86.60;;;;;;5074223;28;20441;-84
2023/06/10 08:56:41;;;;;;;3.30;3.00;;;23.70;86.30;;;;;;5074214;28;20479;-85
2023/06/10 08:59:09;;;;;;;3.30;3.10;;;23.70;86.20;;;;;;5073933;28;20444;-89
2023/06/10 09:01:37;;;;;;;2.93;2.73;;;23.70;86.40;;;;;;5073938;28;20949;-85
2023/06/10 09:04:05;;;;;;;3.33;3.03;;;23.70;86.10;;;;;;5074949;28;20779;-86
2023/06/10 09:06:34;;;;;;;3.23;3.03;;;23.80;86.60;;;;;;5075128;28;20489;-86
2023/06/10 09:09:01;;;;;;;2.53;2.33;;;23.80;86.50;;;;;;5074654;28;20458;-89
2023/06/10 09:11:27;;;;;;;5.43;2.57;;;23.80;86.40;;;;;;5075227;28;20463;-92
2023/06/10 09:13:54;;;;;;;2.97;2.70;;;23.90;86.60;;;;;;5074715;28;20475;-86
2023/06/10 09:16:21;;;;;;;2.80;2.53;;;23.80;86.40;;;;;;5073779;28;20486;-85
2023/06/10 09:18:54;;;;;;;2.80;2.60;;;23.80;86.40;;;;;;5074163;28;20847;-86
2023/06/10 09:21:22;;;;;;;3.43;3.20;;;23.70;86.40;;;;;;5073811;28;20924;-86
2023/06/10 09:23:51;;;;;;;2.83;2.50;;;23.80;86.50;;;;;;5074698;28;20442;-86
2023/06/10 09:26:18;;;;;;;3.30;3.10;;;23.80;86.60;;;;;;5075229;28;20441;-86
2023/06/10 09:28:48;;;;;;;4.10;3.70;;;23.80;86.60;;;;;;5074270;28;20517;-86
2023/06/10 09:31:18;;;;;;;3.70;2.60;;;23.80;86.60;;;;;;5075515;28;20835;-86
2023/06/10 09:33:46;;;;;;;3.27;2.63;;;23.80;86.40;;;;;;5075670;28;20442;-85
2023/06/10 09:36:21;;;;;;;2.60;2.40;;;23.80;86.40;;;;;;5077484;28;20487;-88
2023/06/10 09:38:51;;;;;;;2.63;2.43;;;23.80;86.30;;;;;;5074146;28;20433;-85
2023/06/10 09:41:18;;;;;;;2.77;2.57;;;23.80;86.50;;;;;;5074018;28;20470;-85
2023/06/10 09:43:46;;;;;;;3.30;2.53;;;23.80;86.30;;;;;;5074318;28;20797;-85
2023/06/10 09:46:17;;;;;;;3.70;2.90;;;23.80;86.60;;;;;;5074567;28;20476;-85
2023/06/10 09:48:46;;;;;;;3.00;2.80;;;23.80;86.20;;;;;;5073871;28;20446;-85
2023/06/10 09:51:14;;;;;;;5.07;2.90;;;23.80;86.50;;;;;;5073614;28;20440;-85
2023/06/10 09:53:41;;;;;;;2.70;2.50;;;23.80;86.50;;;;;;5073268;28;20441;-86
2023/06/10 09:56:09;;;;;;;3.50;3.20;;;23.80;86.60;;;;;;5073727;28;20578;-86
2023/06/10 09:58:39;;;;;;;2.40;2.20;;;23.80;86.80;;;;;;5073509;28;20436;-84
2023/06/10 10:01:06;;;;;;;2.70;2.50;;;23.80;86.50;;;;;;5073789;28;20441;-90
2023/06/10 10:03:33;;;;;;;4.00;2.63;;;23.80;86.40;;;;;;5073726;28;20445;-85
2023/06/10 10:06:01;;;;;;;2.60;2.40;;;23.80;86.30;;;;;;5073303;28;20480;-87
2023/06/10 10:08:28;;;;;;;2.80;2.60;;;23.80;86.30;;;;;;5073734;28;20444;-86
2023/06/10 10:10:57;;;;;;;2.80;2.60;;;23.80;86.20;;;;;;5073425;28;20473;-85
2023/06/10 10:13:26;;;;;;;2.87;2.67;;;23.80;86.30;;;;;;5055753;28;20445;-86
2023/06/10 10:15:54;;;;;;;2.87;2.20;;;24.00;86.20;;;;;;5073414;28;20491;-91
2023/06/10 10:18:28;;;;;;;2.60;2.40;;;23.80;86.10;;;;;;5073446;28;20961;-85
2023/06/10 10:20:55;;;;;;;2.70;2.50;;;23.80;86.00;;;;;;5073550;28;20479;-86
2023/06/10 10:23:29;;;;;;;3.60;2.80;;;23.80;85.90;;;;;;5073490;28;20445;-92
2023/06/10 10:25:58;;;;;;;3.00;2.80;;;23.90;86.10;;;;;;5073488;28;20801;-86
2023/06/10 10:28:34;;;;;;;2.60;2.40;;;23.80;85.90;;;;;;5073508;28;20429;-86
2023/06/10 10:31:10;;;;;;;4.43;2.50;;;23.80;86.20;;;;;;5072954;28;20443;-86
2023/06/10 10:33:43;;;;;;;3.30;2.63;;;23.80;86.70;;;;;;5073609;28;20440;-86
2023/06/10 10:36:10;;;;;;;3.63;2.70;;;23.80;86.70;;;;;;5080448;28;20478;-85
2023/06/10 10:38:37;;;;;;;2.80;2.53;;;24.00;86.80;;;;;;5082616;28;20436;-86
2023/06/10 10:41:05;;;;;;;2.97;2.73;;;23.80;86.70;;;;;;5080663;28;20448;-88
2023/06/10 10:43:34;;;;;;;2.77;2.57;;;23.80;86.50;;;;;;5078829;28;20438;-86
2023/06/10 10:46:01;;;;;;;2.87;2.60;;;23.90;86.90;;;;;;5078919;28;20453;-85
2023/06/10 10:48:34;;;;;;;3.47;3.27;;;23.80;86.70;;;;;;5080877;28;20470;-86
2023/06/10 10:51:01;;;;;;;5.53;2.70;;;23.80;86.70;;;;;;5079371;28;20434;-86
2023/06/10 10:53:28;;;;;;;3.03;2.83;;;23.80;86.80;;;;;;5079064;28;20443;-85
2023/06/10 10:56:05;;;;;;;2.90;2.70;;;23.80;86.60;;;;;;5078657;28;20444;-87
2023/06/10 10:58:33;;;;;;;2.70;2.50;;;23.80;86.40;;;;;;5078205;28;20439;-87
2023/06/10 11:01:00;;;;;;;2.80;2.60;;;23.90;86.40;;;;;;5076814;28;20447;-86
2023/06/10 11:03:30;;;;;;;2.97;2.77;;;23.80;86.50;;;;;;5082980;28;20431;-85
2023/06/10 11:05:59;;;;;;;3.00;2.70;;;23.80;86.40;;;;;;5088902;28;20466;-86
2023/06/10 11:08:50;;;;;;;3.30;3.10;;;23.80;86.90;;;;;;5087154;28;20442;-86
2023/06/10 11:11:22;;;;;;;2.83;2.63;;;23.90;86.70;;;;;;5083719;28;20456;-87
2023/06/10 11:14:09;;;;;;;3.70;2.87;;;23.80;86.80;;;;;;5083533;28;20528;-84
2023/06/10 11:16:41;;;;;;;3.13;2.43;;;23.90;87.00;;;;;;5088233;28;20471;-85
2023/06/10 11:19:09;;;;;;;3.07;2.87;;;23.80;87.10;;;;;;5083342;28;20500;-82
2023/06/10 11:21:53;;;;;;;3.43;3.13;;;23.80;87.00;;;;;;5090486;28;20441;-84
2023/06/10 11:24:20;;;;;;;2.53;2.33;;;23.80;86.80;;;;;;5086088;28;20427;-86
2023/06/10 11:26:47;;;;;;;2.60;2.40;;;23.80;86.70;;;;;;5085278;28;20527;-86
2023/06/10 11:29:16;;;;;;;3.03;2.73;;;23.80;86.50;;;;;;5085346;28;20438;-89
2023/06/10 11:31:46;;;;;;;2.97;2.77;;;23.80;86.40;;;;;;5084944;28;20434;-88
2023/06/10 11:34:14;;;;;;;3.37;3.07;;;23.80;86.90;;;;;;5079661;28;20950;-87
2023/06/10 11:36:44;;;;;;;3.57;3.03;;;23.80;87.00;;;;;;5093918;28;20471;-88
2023/06/10 11:39:12;;;;;;;2.73;2.13;;;23.90;87.10;;;;;;5083549;28;20432;-85
2023/06/10 11:41:40;;;;;;;2.83;2.63;;;23.90;87.40;;;;;;5091484;28;20505;-89
2023/06/10 11:44:12;;;;;;;5.10;2.70;;;23.90;87.00;;;;;;5065989;28;20855;-88
2023/06/10 11:46:42;;;;;;;3.07;2.87;;;23.90;86.60;;;;;;5076474;28;20472;-88
2023/06/10 11:49:09;;;;;;;8.43;4.87;;;23.80;86.60;;;;;;5076571;28;20429;-89
2023/06/10 11:51:38;;;;;;;7.67;5.50;;;23.90;86.60;;;;;;5082614;28;20445;-83
2023/06/10 11:54:06;;;;;;;14.40;8.03;;;23.90;86.90;;;;;;5089870;28;20436;-86
2023/06/10 11:56:33;;;;;;;24.00;12.30;;;23.90;88.40;;;;;;5077246;28;20473;-83
2023/06/10 11:59:04;;;;;;;22.63;11.93;;;23.90;89.50;;;;;;5074337;28;20441;-83
2023/06/10 12:01:32;;;;;;;25.33;13.07;;;23.90;88.90;;;;;;5084823;28;20782;-82
2023/06/10 12:04:02;;;;;;;18.60;13.60;;;23.90;88.80;;;;;;5090497;28;20555;-83
2023/06/10 12:06:38;;;;;;;23.77;11.77;;;23.90;88.50;;;;;;5091387;28;20837;-83
2023/06/10 12:09:05;;;;;;;37.77;17.10;;;23.90;89.40;;;;;;5063162;28;20428;-82
2023/06/10 12:11:32;;;;;;;30.80;17.17;;;24.00;90.20;;;;;;5085794;28;20956;-82
2023/06/10 12:13:59;;;;;;;28.90;17.63;;;24.00;90.10;;;;;;5083945;28;20460;-83
2023/06/10 12:16:25;;;;;;;43.13;17.50;;;24.00;90.30;;;;;;5069866;28;20530;-84
2023/06/10 12:19:01;;;;;;;33.40;18.47;;;24.10;90.60;;;;;;5078004;28;20497;-83
2023/06/10 12:21:30;;;;;;;42.33;18.90;;;24.10;90.80;;;;;;5085695;28;20548;-82
2023/06/10 12:24:08;;;;;;;52.93;20.63;;;24.10;90.70;;;;;;5085615;28;20441;-83
2023/06/10 12:26:42;;;;;;;40.40;19.30;;;24.10;90.70;;;;;;5081987;28;20447;-82
2023/06/10 12:29:24;;;;;;;49.97;23.77;;;24.10;91.00;;;;;;5085965;28;20437;-83
2023/06/10 12:32:02;;;;;;;49.43;20.77;;;24.10;91.10;;;;;;5084246;28;20444;-83
2023/06/10 12:34:34;;;;;;;42.57;21.97;;;24.10;91.30;;;;;;5071063;28;20527;-83
2023/06/10 12:37:03;;;;;;;48.70;22.77;;;24.20;91.40;;;;;;5093178;28;20473;-82
2023/06/10 12:39:31;;;;;;;46.53;22.43;;;24.20;91.60;;;;;;5094692;28;20486;-82
2023/06/10 12:41:59;;;;;;;57.07;21.87;;;24.20;91.50;;;;;;5088701;28;20485;-82
2023/06/10 12:44:34;;;;;;;22.90;13.20;;;24.20;91.30;;;;;;5085312;28;20466;-81
2023/06/10 12:47:01;;;;;;;33.40;15.97;;;24.20;90.20;;;;;;5079653;28;20457;-83
2023/06/10 12:49:28;;;;;;;31.77;16.63;;;24.20;90.30;;;;;;5081774;28;20440;-85
2023/06/10 12:51:55;;;;;;;35.27;16.50;;;24.20;90.60;;;;;;5079542;28;20432;-85
2023/06/10 12:54:25;;;;;;;35.43;17.00;;;24.20;90.60;;;;;;5082552;28;20476;-85
2023/06/10 12:56:52;;;;;;;31.33;16.20;;;24.20;90.70;;;;;;5085653;28;20483;-85
2023/06/10 12:59:19;;;;;;;38.23;16.40;;;24.20;90.60;;;;;;5080644;28;20488;-84
2023/06/10 13:01:51;;;;;;;34.93;15.83;;;24.20;90.50;;;;;;5082610;28;20443;-85
2023/06/10 13:04:19;;;;;;;31.63;14.80;;;24.20;90.50;;;;;;5080009;28;20501;-86
2023/06/10 13:06:47;;;;;;;32.50;14.50;;;24.20;90.40;;;;;;5087513;28;20467;-85
2023/06/10 13:09:15;;;;;;;32.43;15.50;;;24.20;90.40;;;;;;5081382;28;20934;-80
2023/06/10 13:11:44;;;;;;;29.17;16.00;;;24.20;90.30;;;;;;5085786;28;20481;-80
2023/06/10 13:14:11;;;;;;;25.13;14.60;;;24.20;90.10;;;;;;5082993;28;20479;-82
2023/06/10 13:16:39;;;;;;;33.43;13.90;;;24.20;90.00;;;;;;5086396;28;20446;-80
2023/06/10 13:19:06;;;;;;;26.30;12.67;;;24.20;90.00;;;;;;5077623;28;20483;-81
2023/06/10 13:21:33;;;;;;;20.50;10.50;;;24.20;89.40;;;;;;5074198;28;20453;-86
2023/06/10 13:24:00;;;;;;;22.23;10.13;;;24.20;88.50;;;;;;5074049;28;20444;-84
2023/06/10 13:26:27;;;;;;;14.67;9.90;;;24.20;87.50;;;;;;5073724;28;20449;-82
2023/06/10 13:28:55;;;;;;;20.03;9.70;;;24.20;87.20;;;;;;5073770;28;20456;-81
2023/06/10 13:31:22;;;;;;;21.10;9.77;;;24.20;87.60;;;;;;5073765;28;20771;-82
2023/06/10 13:33:49;;;;;;;18.90;10.20;;;24.20;87.50;;;;;;5073795;28;20437;-82
2023/06/10 13:36:15;;;;;;;17.97;8.53;;;24.20;87.40;;;;;;5073288;28;20540;-81
2023/06/10 13:38:42;;;;;;;14.50;8.40;;;24.20;87.40;;;;;;5071775;28;20490;-82
2023/06/10 13:41:10;;;;;;;14.30;8.87;;;24.20;87.30;;;;;;5071980;28;20460;-82
2023/06/10 13:43:36;;;;;;;15.90;9.23;;;24.20;87.80;;;;;;5072235;28;20445;-81
2023/06/10 13:46:04;;;;;;;18.77;9.43;;;24.20;87.10;;;;;;5072159;28;20458;-81
2023/06/10 13:48:32;;;;;;;15.10;9.70;;;24.20;87.30;;;;;;5071897;28;20959;-82
2023/06/10 13:50:59;;;;;;;15.50;9.40;;;24.10;87.80;;;;;;5071734;28;20452;-83
2023/06/10 13:53:26;;;;;;;18.70;10.90;;;24.20;88.50;;;;;;5073016;28;20491;-86
2023/06/10 13:55:53;;;;;;;18.07;8.73;;;24.20;88.80;;;;;;5072353;28;20517;-83
2023/06/10 13:58:20;;;;;;;16.57;7.03;;;24.20;88.90;;;;;;5072873;28;20484;-82
2023/06/10 14:00:47;;;;;;;11.83;6.40;;;24.30;89.10;;;;;;5073265;28;20430;-83
2023/06/10 14:03:15;;;;;;;12.90;7.53;;;24.30;87.80;;;;;;5072412;28;20558;-82
2023/06/10 14:05:42;;;;;;;13.77;7.70;;;24.20;87.10;;;;;;5071711;28;20492;-82
2023/06/10 14:08:09;;;;;;;12.43;7.20;;;24.20;86.90;;;;;;5071695;28;20490;-82
2023/06/10 14:10:36;;;;;;;13.40;7.80;;;24.20;87.10;;;;;;5072204;28;20475;-82
2023/06/10 14:13:03;;;;;;;16.57;7.50;;;24.20;87.10;;;;;;5072432;28;20444;-82
2023/06/10 14:15:30;;;;;;;10.57;6.73;;;24.20;86.80;;;;;;5072342;28;20477;-82
2023/06/10 14:17:57;;;;;;;12.03;7.60;;;24.20;86.90;;;;;;5072462;28;20883;-82
2023/06/10 14:20:26;;;;;;;13.93;7.63;;;24.20;86.90;;;;;;5069985;28;20445;-82
2023/06/10 14:22:53;;;;;;;8.63;6.30;;;24.20;86.70;;;;;;5069348;28;20445;-82
2023/06/10 14:25:20;;;;;;;10.60;6.70;;;24.20;86.70;;;;;;5069757;28;20475;-82
2023/06/10 14:27:47;;;;;;;11.90;5.60;;;24.20;86.70;;;;;;5069967;28;20444;-82
2023/06/10 14:30:14;;;;;;;11.73;6.87;;;24.10;86.70;;;;;;5069871;28;20440;-82
2023/06/10 14:32:41;;;;;;;10.57;7.40;;;24.10;87.00;;;;;;5070002;28;20442;-81
2023/06/10 14:35:08;;;;;;;10.80;7.77;;;24.10;87.00;;;;;;5071409;28;20445;-81
2023/06/10 14:37:36;;;;;;;10.13;6.30;;;24.10;86.90;;;;;;5072838;28;20493;-82
2023/06/10 14:40:04;;;;;;;10.80;6.07;;;24.10;87.00;;;;;;5077039;28;20461;-81
2023/06/10 14:42:31;;;;;;;8.93;6.47;;;24.10;86.70;;;;;;5076863;28;20437;-82
2023/06/10 14:44:58;;;;;;;9.40;5.97;;;24.10;86.70;;;;;;5076786;28;20786;-81
2023/06/10 14:47:26;;;;;;;11.07;6.70;;;24.30;87.10;;;;;;5076806;28;20450;-81
2023/06/10 14:49:52;;;;;;;10.70;6.67;;;24.10;87.00;;;;;;5076753;28;20471;-81
2023/06/10 14:52:19;;;;;;;8.20;6.17;;;24.20;86.80;;;;;;5076720;28;20946;-82
2023/06/10 14:54:47;;;;;;;7.17;6.03;;;24.10;86.70;;;;;;5076676;28;20791;-81
2023/06/10 14:57:14;;;;;;;7.63;5.53;;;24.10;86.80;;;;;;5076516;28;20449;-81
2023/06/10 14:59:41;;;;;;;7.60;6.07;;;24.10;86.70;;;;;;5076527;28;20441;-81
2023/06/10 15:02:08;;;;;;;9.87;6.63;;;24.10;86.60;;;;;;5076559;28;20448;-82
2023/06/10 15:04:34;;;;;;;5.60;4.70;;;24.10;86.60;;;;;;5076519;28;20434;-81
2023/06/10 15:07:01;;;;;;;8.60;5.83;;;24.10;86.70;;;;;;5076335;28;20472;-81
2023/06/10 15:09:28;;;;;;;7.87;5.57;;;24.10;86.70;;;;;;5076081;28;20446;-81
2023/06/10 15:11:56;;;;;;;7.07;5.73;;;24.10;86.90;;;;;;5076152;28;20445;-81
2023/06/10 15:14:23;;;;;;;7.97;5.47;;;24.10;86.70;;;;;;5076307;28;21028;-81
2023/06/10 15:16:50;;;;;;;9.03;6.70;;;24.10;86.70;;;;;;5076174;28;20434;-81
2023/06/10 15:19:16;;;;;;;7.57;5.60;;;24.20;87.00;;;;;;5076191;28;20487;-81
2023/06/10 15:21:43;;;;;;;7.17;5.93;;;24.10;86.90;;;;;;5076130;28;20442;-81
2023/06/10 15:24:10;;;;;;;7.67;6.17;;;24.10;86.70;;;;;;5076242;28;20442;-82
2023/06/10 15:26:37;;;;;;;7.67;5.43;;;24.10;86.70;;;;;;5076295;28;20447;-82
2023/06/10 15:29:06;;;;;;;7.67;5.90;;;24.20;87.00;;;;;;5076065;28;20536;-82
2023/06/10 15:31:32;;;;;;;7.10;4.70;;;24.10;87.00;;;;;;5076037;28;20450;-82
2023/06/10 15:33:59;;;;;;;7.53;4.97;;;24.20;87.20;;;;;;5076000;28;20474;-82
2023/06/10 15:36:26;;;;;;;8.37;5.70;;;24.10;86.80;;;;;;5075816;28;20449;-82
2023/06/10 15:38:53;;;;;;;5.93;5.33;;;24.10;87.20;;;;;;5075763;28;20535;-84
2023/06/10 15:41:21;;;;;;;5.30;4.80;;;24.20;87.20;;;;;;5075698;28;20810;-81
2023/06/10 15:43:48;;;;;;;7.03;5.77;;;24.10;87.00;;;;;;5075862;28;20536;-81
2023/06/10 15:46:16;;;;;;;6.17;4.70;;;24.10;87.30;;;;;;5075730;28;20449;-81
2023/06/10 15:48:43;;;;;;;7.30;5.43;;;24.20;87.40;;;;;;5075618;28;20453;-81
2023/06/10 15:51:09;;;;;;;4.97;4.40;;;24.10;87.30;;;;;;5074598;28;20843;-80
2023/06/10 15:53:36;;;;;;;6.13;4.90;;;24.10;87.50;;;;;;5075593;28;20442;-81
2023/06/10 15:56:03;;;;;;;8.73;4.87;;;24.20;87.50;;;;;;5075577;28;20445;-81
2023/06/10 15:58:30;;;;;;;5.03;4.60;;;24.10;87.20;;;;;;5075297;28;21024;-81
2023/06/10 16:00:57;;;;;;;7.67;5.07;;;24.20;87.50;;;;;;5075667;28;20445;-81
2023/06/10 16:03:25;;;;;;;4.80;4.30;;;24.20;87.50;;;;;;5075609;28;20793;-81
2023/06/10 16:05:52;;;;;;;4.90;4.50;;;24.10;87.10;;;;;;5075101;28;20476;-81
2023/06/10 16:08:19;;;;;;;7.60;4.70;;;24.20;87.30;;;;;;5075272;28;20439;-81
2023/06/10 16:10:45;;;;;;;9.90;4.83;;;24.20;87.50;;;;;;5074931;28;20547;-81
2023/06/10 16:13:12;;;;;;;5.97;4.53;;;24.20;87.40;;;;;;5075255;28;20440;-81
2023/06/10 16:15:39;;;;;;;4.40;4.00;;;24.20;87.50;;;;;;5075241;28;20448;-82
2023/06/10 16:18:06;;;;;;;5.20;4.70;;;24.20;87.50;;;;;;5075165;28;20484;-81
2023/06/10 16:20:35;;;;;;;5.60;3.93;;;24.20;87.60;;;;;;5074971;28;20523;-81
2023/06/10 16:23:02;;;;;;;6.10;4.77;;;24.10;87.60;;;;;;5075067;28;20937;-81
2023/06/10 16:25:29;;;;;;;5.10;4.70;;;24.20;87.60;;;;;;5074966;28;20450;-81
2023/06/10 16:27:56;;;;;;;4.87;4.37;;;24.20;87.80;;;;;;5074892;28;20507;-85
2023/06/10 16:30:23;;;;;;;4.83;3.97;;;24.20;87.80;;;;;;5074945;28;20452;-84
2023/06/10 16:32:50;;;;;;;5.40;4.67;;;24.10;87.50;;;;;;5075134;28;20448;-81
2023/06/10 16:35:17;;;;;;;5.00;4.40;;;24.20;87.60;;;;;;5075062;28;20520;-81
2023/06/10 16:37:45;;;;;;;4.97;4.23;;;24.10;87.60;;;;;;5074550;28;20441;-81
2023/06/10 16:40:13;;;;;;;4.20;3.80;;;24.20;88.00;;;;;;5074717;28;20546;-83
2023/06/10 16:42:40;;;;;;;5.43;4.83;;;24.20;87.70;;;;;;5074872;28;20449;-81
2023/06/10 16:45:08;;;;;;;3.67;3.37;;;24.20;87.70;;;;;;5074778;28;20444;-81
2023/06/10 16:47:35;;;;;;;4.40;4.00;;;24.20;87.80;;;;;;5074564;28;20444;-81
2023/06/10 16:50:03;;;;;;;5.57;4.60;;;24.20;87.50;;;;;;5074522;28;20456;-82
2023/06/10 16:52:29;;;;;;;4.80;4.40;;;24.10;87.40;;;;;;5074431;28;20452;-84
2023/06/10 16:54:58;;;;;;;4.27;3.87;;;24.20;87.10;;;;;;5074453;28;20441;-81
2023/06/10 16:57:24;;;;;;;4.33;3.57;;;24.20;87.40;;;;;;5074387;28;20451;-82
2023/06/10 16:59:51;;;;;;;6.13;4.00;;;24.10;87.10;;;;;;5074234;28;20495;-82
2023/06/10 17:02:18;;;;;;;4.53;4.13;;;24.10;87.10;;;;;;5074144;28;20437;-82
2023/06/10 17:04:45;;;;;;;6.43;4.63;;;24.10;87.00;;;;;;5074293;28;20790;-83
2023/06/10 17:07:11;;;;;;;5.30;3.70;;;24.10;87.10;;;;;;5074053;28;20465;-82
2023/06/10 17:09:38;;;;;;;4.00;3.43;;;24.10;87.10;;;;;;5074384;28;20465;-83
2023/06/10 17:12:08;;;;;;;4.10;3.70;;;24.10;86.90;;;;;;5074070;28;20440;-82
2023/06/10 17:14:36;;;;;;;5.30;4.80;;;24.10;86.90;;;;;;5073984;28;20810;-83
2023/06/10 17:17:03;;;;;;;4.13;3.73;;;24.10;86.90;;;;;;5073671;28;20915;-86
2023/06/10 17:19:30;;;;;;;4.20;3.80;;;24.10;87.10;;;;;;5073857;28;21071;-83
2023/06/10 17:21:57;;;;;;;5.23;3.30;;;24.20;87.30;;;;;;5073829;28;20522;-84
2023/06/10 17:24:24;;;;;;;4.40;3.97;;;24.20;87.10;;;;;;5073934;28;20850;-82
2023/06/10 17:26:51;;;;;;;4.93;4.33;;;24.20;88.00;;;;;;5073854;28;20442;-82
2023/06/10 17:29:19;;;;;;;4.67;4.27;;;24.20;87.50;;;;;;5073703;28;20937;-82
2023/06/10 17:31:45;;;;;;;4.70;4.00;;;24.10;87.20;;;;;;5073641;28;20436;-83
2023/06/10 17:34:12;;;;;;;4.47;4.07;;;24.20;87.40;;;;;;5073556;28;20451;-82
2023/06/10 17:36:39;;;;;;;4.53;4.13;;;24.20;87.50;;;;;;5073684;28;20800;-83
2023/06/10 17:39:06;;;;;;;4.10;3.70;;;24.10;87.10;;;;;;5073520;28;20497;-85
2023/06/10 17:41:33;;;;;;;6.60;5.03;;;24.10;87.10;;;;;;5073660;28;20451;-81
2023/06/10 17:44:00;;;;;;;3.73;3.17;;;24.10;87.20;;;;;;5073709;28;20437;-81
2023/06/10 17:46:28;;;;;;;3.90;3.60;;;24.10;87.20;;;;;;5073467;28;20444;-83
2023/06/10 17:48:54;;;;;;;3.50;3.20;;;24.20;87.30;;;;;;5073474;28;20796;-82
2023/06/10 17:51:22;;;;;;;4.60;4.20;;;24.10;87.00;;;;;;5073380;28;20950;-82
2023/06/10 17:53:49;;;;;;;4.70;4.30;;;24.20;87.30;;;;;;5073488;28;20942;-82
2023/06/10 17:56:15;;;;;;;3.87;3.57;;;24.10;87.10;;;;;;5073321;28;20951;-82
2023/06/10 17:58:42;;;;;;;4.43;3.90;;;24.20;87.10;;;;;;5073157;28;20487;-81
2023/06/10 18:01:09;;;;;;;4.63;4.23;;;24.20;87.20;;;;;;5073068;28;20447;-81
2023/06/10 18:03:38;;;;;;;3.80;3.50;;;24.10;86.80;;;;;;5073141;28;20450;-81
2023/06/10 18:06:05;;;;;;;4.20;3.77;;;24.20;87.10;;;;;;5073036;28;20478;-82
2023/06/10 18:08:34;;;;;;;4.00;3.67;;;24.10;87.10;;;;;;5073255;28;20465;-82
2023/06/10 18:11:02;;;;;;;3.60;3.30;;;24.20;87.00;;;;;;5073246;28;20465;-83
2023/06/10 18:13:29;;;;;;;3.87;3.57;;;24.10;86.80;;;;;;5072864;28;20528;-82
2023/06/10 18:15:59;;;;;;;3.97;3.67;;;24.10;87.00;;;;;;5073084;28;20442;-82
2023/06/10 18:18:26;;;;;;;3.57;3.27;;;24.20;87.30;;;;;;5073084;28;20811;-86
2023/06/10 18:20:55;;;;;;;4.77;3.43;;;24.10;87.20;;;;;;5072967;28;20441;-83
2023/06/10 18:23:21;;;;;;;3.63;3.33;;;24.10;87.50;;;;;;5073081;28;20446;-82
2023/06/10 18:25:48;;;;;;;4.00;3.70;;;24.10;87.30;;;;;;5072883;28;20452;-82
2023/06/10 18:28:15;;;;;;;4.40;3.77;;;24.10;87.30;;;;;;5072980;28;20449;-81
2023/06/10 18:30:42;;;;;;;4.03;3.73;;;24.10;87.40;;;;;;5073100;28;20462;-82
2023/06/10 18:33:09;;;;;;;4.10;3.80;;;24.20;87.40;;;;;;5073063;28;20531;-82
2023/06/10 18:35:36;;;;;;;4.17;3.87;;;24.10;87.40;;;;;;5072957;28;20532;-82
2023/06/10 18:38:04;;;;;;;4.07;3.77;;;24.10;87.50;;;;;;5072764;28;20437;-82
2023/06/10 18:40:30;;;;;;;3.87;3.47;;;24.10;87.50;;;;;;5072803;28;20485;-81
2023/06/10 18:42:57;;;;;;;3.57;3.27;;;24.10;87.30;;;;;;5072835;28;20527;-81
2023/06/10 18:45:24;;;;;;;4.10;3.80;;;24.20;87.50;;;;;;5072825;28;20448;-82
2023/06/10 18:47:51;;;;;;;2.83;2.63;;;24.20;87.50;;;;;;5072992;28;20448;-82
2023/06/10 18:50:18;;;;;;;4.60;4.20;;;24.10;87.30;;;;;;5072652;28;21046;-81
2023/06/10 18:52:45;;;;;;;3.83;3.53;;;24.10;87.30;;;;;;5055134;28;20437;-81
2023/06/10 18:55:13;;;;;;;4.10;3.80;;;24.20;87.40;;;;;;5072805;28;20433;-81
2023/06/10 18:57:40;;;;;;;3.77;3.47;;;24.10;87.40;;;;;;5072727;28;20528;-81
2023/06/10 19:00:07;;;;;;;3.93;3.63;;;24.10;87.40;;;;;;5072613;28;20484;-81
2023/06/10 19:02:34;;;;;;;4.17;3.70;;;24.10;87.30;;;;;;5072703;28;20468;-81
2023/06/10 19:05:01;;;;;;;4.00;3.70;;;24.10;87.20;;;;;;5072582;28;20449;-81
2023/06/10 19:07:28;;;;;;;3.73;3.43;;;24.20;87.30;;;;;;5072685;28;20442;-81
2023/06/10 19:09:55;;;;;;;3.90;3.60;;;24.20;87.50;;;;;;5072363;28;20515;-82
2023/06/10 19:12:23;;;;;;;3.40;3.20;;;24.20;87.50;;;;;;5072510;28;20448;-82
2023/06/10 19:14:50;;;;;;;3.50;3.20;;;24.20;87.60;;;;;;5072546;28;20851;-81
2023/06/10 19:17:17;;;;;;;3.33;3.13;;;24.10;87.20;;;;;;5072656;28;20458;-82
2023/06/10 19:19:44;;;;;;;3.30;3.00;;;24.10;87.40;;;;;;5072389;28;20541;-82
2023/06/10 19:22:10;;;;;;;3.57;3.37;;;24.20;87.50;;;;;;5072463;28;20461;-82
2023/06/10 19:24:39;;;;;;;4.00;3.70;;;24.20;87.60;;;;;;5072415;28;20541;-85
2023/06/10 19:27:07;;;;;;;3.60;3.30;;;24.20;87.60;;;;;;5076105;28;20451;-82
2023/06/10 19:29:35;;;;;;;3.50;3.30;;;24.20;87.50;;;;;;5076263;28;20445;-82
2023/06/10 19:32:02;;;;;;;4.30;4.00;;;24.10;87.30;;;;;;5076230;28;20448;-82
2023/06/10 19:34:28;;;;;;;3.97;3.67;;;24.20;87.40;;;;;;5076240;28;20924;-82
2023/06/10 19:36:55;;;;;;;3.37;3.07;;;24.20;87.20;;;;;;5076039;28;20457;-81
2023/06/10 19:39:22;;;;;;;3.70;3.40;;;24.20;87.40;;;;;;5075915;28;20496;-81
2023/06/10 19:41:49;;;;;;;3.80;3.50;;;24.10;87.20;;;;;;5075943;28;20437;-81
2023/06/10 19:44:16;;;;;;;3.10;2.90;;;24.20;87.20;;;;;;5075780;28;20445;-82
2023/06/10 19:46:47;;;;;;;3.87;3.47;;;24.10;87.00;;;;;;5075768;28;20541;-85
2023/06/10 19:49:15;;;;;;;3.47;3.27;;;24.20;87.20;;;;;;5075781;28;20483;-81
2023/06/10 19:51:42;;;;;;;4.10;3.80;;;24.20;87.40;;;;;;5075660;28;20987;-85